Time;durP1;ratioP1;P1;durP2;ratioP2;P2;SDS_P1;SDS_P2;PMS_P1;PMS_P2;Temp;Humidity;BMP_temperature;BMP_pressure;BME280_temperature;BME280_humidity;BME280_pressure;Samples;Min_cycle;Max_cycle;Signal;HPM_P1;HPM_P2
2024/01/30 00:00:25;;;;;;;25.75;19.98;;;6.00;99.90;;;;;;5027572;28;20132;-96
2024/01/30 00:03:02;;;;;;;24.65;20.48;;;5.90;99.90;;;;;;5024625;28;20136;-96
2024/01/30 00:05:36;;;;;;;26.02;20.30;;;5.90;99.90;;;;;;5010069;28;20059;-96
2024/01/30 00:08:18;;;;;;;25.17;19.73;;;4.90;99.90;;;;;;5039777;28;20079;-95
2024/01/30 00:10:57;;;;;;;30.02;21.25;;;5.90;99.90;;;;;;5039556;28;20056;-95
2024/01/30 00:13:28;;;;;;;25.55;19.85;;;5.90;99.90;;;;;;5039854;28;20398;-96
2024/01/30 00:16:09;;;;;;;25.65;20.05;;;5.40;99.90;;;;;;5024546;28;20507;-96
2024/01/30 00:18:45;;;;;;;28.67;20.35;;;5.80;99.90;;;;;;5037902;28;20064;-96
2024/01/30 00:21:51;;;;;;;23.13;19.38;;;5.90;99.90;;;;;;5039775;28;20083;-96
2024/01/30 00:24:23;;;;;;;25.45;20.50;;;5.10;99.90;;;;;;5046739;28;20190;-96
2024/01/30 00:26:49;;;;;;;23.85;19.50;;;5.90;99.90;;;;;;5040641;28;20045;-96
2024/01/30 00:29:35;;;;;;;27.80;20.90;;;5.90;99.90;;;;;;5043868;28;20056;-96
2024/01/30 00:32:06;;;;;;;28.25;20.42;;;5.90;99.90;;;;;;5046318;28;20802;-96
2024/01/30 00:34:53;;;;;;;29.25;20.13;;;5.00;99.90;;;;;;5061407;28;20509;-96
2024/01/30 00:37:39;;;;;;;;;;;;;;;;;;;;;
2024/01/30 00:43:21;;;;;;;25.60;19.10;;;5.90;99.90;;;;;;5067189;28;20121;-96
2024/01/30 00:45:59;;;;;;;;;;;;;;;;;;;;;
2024/01/30 00:48:35;;;;;;;24.80;19.17;;;5.80;99.90;;;;;;5078423;28;20050;-96
2024/01/30 00:51:21;;;;;;;25.88;19.85;;;5.80;99.90;;;;;;5046742;28;20047;-96
2024/01/30 00:53:53;;;;;;;28.90;21.05;;;5.90;99.90;;;;;;5045965;28;20056;-96
2024/01/30 00:56:21;;;;;;;24.92;19.63;;;5.90;99.90;;;;;;5060676;28;20055;-96
2024/01/30 00:58:50;;;;;;;27.33;20.45;;;5.90;99.90;;;;;;5061017;28;20425;-96
2024/01/30 01:01:26;;;;;;;;;;;;;;;;;;;;;
2024/01/30 01:04:07;;;;;;;24.33;18.67;;;5.80;99.90;;;;;;5078159;28;20046;-96
2024/01/30 01:06:35;;;;;;;23.52;19.17;;;5.80;99.90;;;;;;5066080;28;20388;-96
2024/01/30 01:09:04;;;;;;;27.88;20.80;;;5.70;99.90;;;;;;5065210;28;20493;-96
2024/01/30 01:12:06;;;;;;;;;;;;;;;;;;;;;
2024/01/30 01:14:36;;;;;;;25.23;18.45;;;5.00;99.90;;;;;;5083476;28;20503;-96
2024/01/30 01:17:12;;;;;;;24.52;19.73;;;5.50;99.90;;;;;;5066616;28;20039;-96
2024/01/30 01:19:47;;;;;;;26.77;20.20;;;5.70;99.90;;;;;;5048957;28;20039;-96
2024/01/30 01:22:27;;;;;;;22.27;18.02;;;5.80;99.90;;;;;;5065302;28;20043;-96
2024/01/30 01:25:02;;;;;;;25.05;19.80;;;5.70;99.90;;;;;;5065363;28;20044;-96
2024/01/30 01:27:54;;;;;;;24.80;19.13;;;5.70;99.90;;;;;;5079926;28;20044;-96
2024/01/30 01:30:47;;;;;;;26.00;19.75;;;5.70;99.90;;;;;;5076594;28;20055;-96
2024/01/30 01:33:14;;;;;;;23.80;18.73;;;5.60;99.90;;;;;;5061232;28;20075;-96
2024/01/30 01:35:40;;;;;;;25.13;20.60;;;5.70;99.90;;;;;;5077499;28;20119;-96
2024/01/30 01:38:13;;;;;;;26.10;18.98;;;5.00;99.90;;;;;;5078681;28;20047;-96
2024/01/30 01:40:51;;;;;;;29.35;20.23;;;4.60;99.90;;;;;;5063133;28;20044;-96
2024/01/30 01:43:24;;;;;;;25.58;19.48;;;5.50;99.90;;;;;;5064002;28;20056;-96
2024/01/30 01:45:59;;;;;;;32.58;20.50;;;5.60;99.90;;;;;;5080941;28;20048;-96
2024/01/30 01:48:29;;;;;;;25.77;20.10;;;5.70;99.90;;;;;;5080022;28;20114;-96
2024/01/30 01:50:57;;;;;;;24.92;19.17;;;5.70;99.90;;;;;;5064680;28;20097;-96
2024/01/30 01:53:43;;;;;;;22.63;17.98;;;5.60;99.90;;;;;;5080142;28;20044;-96
2024/01/30 01:56:17;;;;;;;25.48;17.83;;;6.40;99.90;;;;;;5067066;28;20043;-96
2024/01/30 01:59:22;;;;;;;;;;;;;;;;;;;;;
2024/01/30 02:02:00;;;;;;;27.27;19.13;;;6.30;99.90;;;;;;5096235;28;20086;-96
2024/01/30 02:04:45;;;;;;;25.15;20.17;;;5.00;99.90;;;;;;5063040;28;20052;-96
2024/01/30 02:07:19;;;;;;;;;;;5.70;99.90;;;;;;5078889;28;20375;-96
2024/01/30 02:09:47;;;;;;;27.92;19.88;;;5.90;99.90;;;;;;5076292;28;19926;-96
2024/01/30 02:12:21;;;;;;;24.88;19.15;;;5.70;99.90;;;;;;5076833;28;20051;-96
2024/01/30 02:14:55;;;;;;;24.00;18.27;;;5.80;99.90;;;;;;5077623;28;20052;-96
2024/01/30 02:17:25;;;;;;;23.70;19.48;;;5.30;99.90;;;;;;5045431;28;20047;-96
2024/01/30 02:19:54;;;;;;;26.70;18.95;;;5.80;99.90;;;;;;5060138;28;20048;-96
2024/01/30 02:22:31;;;;;;;;;;;;;;;;;;;;;
2024/01/30 02:25:23;;;;;;;27.90;19.20;;;5.00;99.90;;;;;;5093800;28;20044;-96
2024/01/30 02:27:55;;;;;;;20.77;16.33;;;5.90;99.90;;;;;;5076604;28;20043;-96
2024/01/30 02:30:24;;;;;;;24.05;17.65;;;6.00;99.90;;;;;;5060009;28;20083;-96
2024/01/30 02:32:59;;;;;;;23.35;18.30;;;6.00;99.90;;;;;;5076977;28;20203;-96
2024/01/30 02:35:35;;;;;;;22.15;16.75;;;6.10;99.90;;;;;;5078088;28;20401;-96
2024/01/30 02:38:14;;;;;;;;;;;;;;;;;;;;;
2024/01/30 02:40:51;;;;;;;20.60;17.13;;;6.10;99.90;;;;;;5093676;28;20052;-96
2024/01/30 02:43:25;;;;;;;19.10;16.52;;;5.10;99.90;;;;;;5077264;28;20036;-96
2024/01/30 02:45:53;;;;;;;22.70;17.85;;;6.00;99.90;;;;;;5059914;28;20047;-96
2024/01/30 02:51:19;;;;;;;20.98;17.23;;;5.50;99.90;;;;;;5098400;28;20048;-96
2024/01/30 02:53:48;;;;;;;23.35;17.38;;;6.00;99.90;;;;;;5049031;28;20115;-96
2024/01/30 02:56:25;;;;;;;25.63;18.73;;;6.00;99.90;;;;;;5081212;28;20113;-96
2024/01/30 02:59:05;;;;;;;;;;;;;;;;;;;;;
2024/01/30 03:01:51;;;;;;;19.80;16.75;;;5.90;99.90;;;;;;5097388;28;20055;-96
2024/01/30 03:04:27;;;;;;;23.40;17.02;;;6.00;99.90;;;;;;5066198;28;20397;-96
2024/01/30 03:06:55;;;;;;;22.73;17.48;;;6.00;99.90;;;;;;5080588;28;20055;-96
2024/01/30 03:09:26;;;;;;;25.20;19.85;;;6.30;99.90;;;;;;5080133;28;20135;-96
2024/01/30 03:12:22;;;;;;;;;;;;;;;;;;;;;
2024/01/30 03:15:00;;;;;;;23.33;17.65;;;6.00;99.90;;;;;;5070362;28;20092;-96
2024/01/30 03:17:28;;;;;;;22.17;16.92;;;6.00;99.90;;;;;;5045223;28;20471;-96
2024/01/30 03:20:10;;;;;;;;;;;;;;;;;;;;;
2024/01/30 03:22:59;;;;;;;22.65;17.38;;;5.50;99.90;;;;;;5077042;28;20536;-96
2024/01/30 03:25:38;;;;;;;22.83;17.85;;;6.00;99.90;;;;;;5067796;28;20059;-96
2024/01/30 03:28:22;;;;;;;;;;;;;;;;;;;;;
2024/01/30 03:31:23;;;;;;;22.48;16.95;;;6.00;99.90;;;;;;5071811;28;20079;-96
2024/01/30 03:34:45;;;;;;;21.75;17.52;;;5.90;99.90;;;;;;5062133;28;20048;-96
2024/01/30 03:37:23;;;;;;;22.77;16.73;;;5.50;99.90;;;;;;5069369;28;20098;-96
2024/01/30 03:43:38;;;;;;;21.60;16.80;;;6.00;99.90;;;;;;5073374;28;20497;-96
2024/01/30 03:46:36;;;;;;;22.50;15.82;;;6.90;99.90;;;;;;5086355;28;20108;-96
2024/01/30 03:49:47;;;;;;;23.08;17.58;;;6.20;99.90;;;;;;5053078;28;20083;-96
2024/01/30 03:52:36;;;;;;;20.00;15.52;;;6.00;99.90;;;;;;5030633;28;20120;-96
2024/01/30 03:55:17;;;;;;;21.08;16.30;;;5.80;99.90;;;;;;4990059;28;20056;-96
2024/01/30 04:00:55;;;;;;;19.95;16.15;;;6.20;99.90;;;;;;5052661;28;20080;-96
2024/01/30 04:03:46;;;;;;;;;;;;;;;;;;;;;
2024/01/30 04:06:16;;;;;;;22.17;15.77;;;5.50;99.90;;;;;;5067670;28;20086;-96
2024/01/30 04:08:47;;;;;;;23.58;16.52;;;6.20;99.90;;;;;;5062742;28;20062;-96
2024/01/30 04:11:28;;;;;;;21.42;15.82;;;6.30;99.90;;;;;;5061585;28;20048;-96
2024/01/30 04:14:06;;;;;;;20.63;15.75;;;6.30;99.90;;;;;;5060519;28;20131;-96
2024/01/30 04:16:55;;;;;;;21.60;15.73;;;5.50;99.90;;;;;;5044273;28;20051;-96
2024/01/30 04:19:25;;;;;;;20.83;15.35;;;6.30;99.90;;;;;;5062192;28;20048;-96
2024/01/30 04:22:04;;;;;;;20.10;15.82;;;6.40;99.90;;;;;;5059782;28;20057;-96
2024/01/30 04:24:33;;;;;;;19.50;15.18;;;6.30;99.90;;;;;;5045080;28;20551;-96
2024/01/30 04:27:01;;;;;;;19.48;15.75;;;6.30;99.90;;;;;;5059933;28;20036;-96
2024/01/30 04:30:15;;;;;;;19.13;14.98;;;6.50;99.90;;;;;;5053235;28;20052;-96
2024/01/30 04:32:46;;;;;;;21.58;16.40;;;6.40;99.90;;;;;;5081833;28;20077;-96
2024/01/30 04:35:24;;;;;;;22.17;15.73;;;6.40;99.90;;;;;;5073221;28;20136;-96
2024/01/30 04:38:06;;;;;;;18.52;13.40;;;5.80;99.90;;;;;;5045212;28;20044;-96
2024/01/30 04:41:05;;;;;;;18.15;15.02;;;6.50;99.90;;;;;;5028555;28;20105;-96
2024/01/30 04:43:33;;;;;;;23.65;15.38;;;6.60;99.90;;;;;;5056892;28;20125;-96
2024/01/30 04:46:05;;;;;;;21.60;16.30;;;6.50;99.90;;;;;;5038675;28;20052;-96
2024/01/30 04:48:51;;;;;;;;;;;;;;;;;;;;;
2024/01/30 04:51:29;;;;;;;20.20;15.05;;;7.00;99.90;;;;;;5056488;28;20056;-96
2024/01/30 04:54:00;;;;;;;17.00;14.50;;;6.50;99.90;;;;;;5050633;28;20041;-96
2024/01/30 04:56:31;;;;;;;18.50;14.77;;;6.50;99.90;;;;;;5038489;28;20442;-96
2024/01/30 04:59:09;;;;;;;19.85;14.88;;;6.50;99.90;;;;;;5037738;28;20441;-96
2024/01/30 05:01:45;;;;;;;18.05;15.00;;;6.50;99.90;;;;;;5037548;28;20454;-96
2024/01/30 05:04:21;;;;;;;23.37;15.57;;;6.50;99.90;;;;;;5038057;28;20049;-96
2024/01/30 05:06:50;;;;;;;20.42;14.68;;;6.50;99.90;;;;;;5037969;28;20080;-96
2024/01/30 05:09:19;;;;;;;18.00;14.85;;;6.40;99.90;;;;;;5038027;28;20041;-96
2024/01/30 05:12:12;;;;;;;18.58;15.75;;;6.50;99.90;;;;;;5037651;28;20483;-96
2024/01/30 05:14:53;;;;;;;;;;;;;;;;;;;;;
2024/01/30 05:17:50;;;;;;;20.30;15.40;;;5.60;99.90;;;;;;5060008;28;20131;-96
2024/01/30 05:20:42;;;;;;;20.40;16.00;;;6.50;99.90;;;;;;5042238;28;20052;-96
2024/01/30 05:23:32;;;;;;;;;;;;;;;;;;;;;
2024/01/30 05:26:08;;;;;;;18.25;14.52;;;6.50;99.90;;;;;;5077425;28;20127;-96
2024/01/30 05:28:48;;;;;;;;;;;;;;;;;;;;;
2024/01/30 05:31:34;;;;;;;22.42;16.70;;;6.50;99.90;;;;;;5079726;28;20044;-96
2024/01/30 05:34:06;;;;;;;19.60;15.00;;;6.50;99.90;;;;;;5053626;28;20127;-96
2024/01/30 05:37:06;;;;;;;17.95;14.20;;;6.50;99.90;;;;;;5087077;28;20054;-96
2024/01/30 05:42:29;;;;;;;18.20;14.13;;;7.00;99.90;;;;;;5036921;28;20057;-96
2024/01/30 05:45:05;;;;;;;;;;;;;;;;;;;;;
2024/01/30 05:47:47;;;;;;;24.88;14.40;;;6.50;99.90;;;;;;5021138;28;20053;-96
2024/01/30 05:50:26;;;;;;;;;;;;;;;;;;;;;
2024/01/30 05:53:04;;;;;;;18.10;14.55;;;6.60;99.90;;;;;;5033617;28;20050;-96
2024/01/30 05:55:38;;;;;;;21.95;15.48;;;6.60;99.90;;;;;;5001656;28;20049;-96
2024/01/30 05:58:09;;;;;;;20.45;14.57;;;6.70;99.90;;;;;;4982953;28;20510;-96
2024/01/30 06:00:58;;;;;;;18.08;14.90;;;6.40;99.90;;;;;;4982884;28;20053;-96
2024/01/30 06:03:43;;;;;;;;;;;;;;;;;;;;;
2024/01/30 06:06:30;;;;;;;;;;;;;;;;;;;;;
2024/01/30 06:09:01;;;;;;;17.60;14.57;;;6.70;99.90;;;;;;5015049;28;20041;-96
2024/01/30 06:11:39;;;;;;;21.70;14.98;;;6.70;99.90;;;;;;4997629;28;20081;-96
2024/01/30 06:14:09;;;;;;;20.38;15.18;;;6.80;99.90;;;;;;4997130;28;20081;-96
2024/01/30 06:19:44;;;;;;;18.33;14.40;;;6.80;99.90;;;;;;5013167;28;20389;-96
2024/01/30 06:22:13;;;;;;;20.80;15.23;;;5.90;99.90;;;;;;4997491;28;20057;-96
2024/01/30 06:25:03;;;;;;;20.42;14.07;;;6.70;99.90;;;;;;5014285;28;20119;-96
2024/01/30 06:31:20;;;;;;;19.80;15.43;;;6.00;99.90;;;;;;5011761;28;20053;-96
2024/01/30 06:34:15;;;;;;;;;;;;;;;;;;;;;
2024/01/30 06:37:13;;;;;;;;;;;;;;;;;;;;;
2024/01/30 06:39:52;;;;;;;20.70;15.25;;;6.60;99.90;;;;;;5030284;28;20107;-96
2024/01/30 06:46:00;;;;;;;19.30;14.25;;;6.70;99.90;;;;;;5016722;28;20132;-96
2024/01/30 06:48:51;;;;;;;;;;;;;;;;;;;;;
2024/01/30 06:51:28;;;;;;;19.23;15.32;;;6.70;99.90;;;;;;5018913;28;20132;-96
2024/01/30 06:53:56;;;;;;;20.42;15.27;;;6.70;99.90;;;;;;5016357;28;20048;-94
2024/01/30 06:56:37;;;;;;;;;;;;;;;;;;;;;
2024/01/30 06:59:06;;;;;;;18.52;14.77;;;6.70;99.90;;;;;;5033178;28;20087;-96
2024/01/30 07:01:35;;;;;;;17.85;14.70;;;6.00;99.90;;;;;;5016474;28;20487;-95
2024/01/30 07:04:11;;;;;;;21.25;14.07;;;6.70;99.90;;;;;;5000779;28;20085;-96
2024/01/30 07:06:44;;;;;;;18.80;14.63;;;6.80;99.90;;;;;;4984613;28;20050;-95
2024/01/30 07:09:31;;;;;;;;;;;;;;;;;;;;;
2024/01/30 07:12:09;;;;;;;19.33;15.90;;;6.80;99.90;;;;;;5013452;28;20085;-95
2024/01/30 07:15:00;;;;;;;19.35;14.80;;;6.80;99.90;;;;;;4980610;28;20050;-96
2024/01/30 07:17:37;;;;;;;19.42;15.52;;;6.80;99.90;;;;;;4980927;28;20477;-95
2024/01/30 07:20:07;;;;;;;19.23;14.68;;;7.10;99.90;;;;;;5002094;28;20059;-95
2024/01/30 07:23:05;;;;;;;;;;;;;;;;;;;;;
2024/01/30 07:25:41;;;;;;;21.50;14.43;;;6.90;99.90;;;;;;5032633;28;20056;-95
2024/01/30 07:28:19;;;;;;;;;;;;;;;;;;;;;
2024/01/30 07:30:50;;;;;;;19.88;14.75;;;6.80;99.90;;;;;;5032477;28;20055;-95
2024/01/30 07:33:31;;;;;;;19.35;14.88;;;5.80;99.90;;;;;;4995806;28;20045;-94
2024/01/30 07:36:00;;;;;;;18.85;15.40;;;6.90;99.90;;;;;;4982488;28;20050;-94
2024/01/30 07:38:46;;;;;;;19.70;16.58;;;5.90;99.90;;;;;;4999210;28;20046;-94
2024/01/30 07:41:15;;;;;;;18.67;14.48;;;6.80;99.90;;;;;;5000099;28;20092;-93
2024/01/30 07:43:44;;;;;;;22.98;16.13;;;6.70;99.90;;;;;;5001174;28;20061;-93
2024/01/30 07:46:22;;;;;;;;;;;;;;;;;;;;;
2024/01/30 07:48:50;;;;;;;17.98;15.02;;;6.80;99.90;;;;;;5025139;28;20048;-92
2024/01/30 07:51:16;;;;;;;20.48;16.02;;;6.10;99.90;;;;;;5001886;28;20049;-95
2024/01/30 07:53:51;;;;;;;21.87;15.97;;;6.10;99.90;;;;;;5018622;28;20042;-96
2024/01/30 07:56:20;;;;;;;19.00;16.13;;;6.80;99.90;;;;;;5023364;28;20053;-96
2024/01/30 07:58:50;;;;;;;21.55;16.15;;;6.80;99.90;;;;;;5018827;28;20480;-91
2024/01/30 08:01:19;;;;;;;20.00;14.95;;;6.80;99.90;;;;;;5017792;28;20178;-93
2024/01/30 08:03:49;;;;;;;21.40;14.75;;;6.80;99.90;;;;;;5018141;28;20037;-95
2024/01/30 08:06:19;;;;;;;20.17;13.63;;;6.60;99.90;;;;;;5014695;28;20053;-96
2024/01/30 08:08:57;;;;;;;;;;;;;;;;;;;;;
2024/01/30 08:11:29;;;;;;;19.00;15.85;;;6.80;99.90;;;;;;5015159;28;20046;-95
2024/01/30 08:13:57;;;;;;;20.77;14.45;;;6.80;99.90;;;;;;4977734;28;20053;-93
2024/01/30 08:16:38;;;;;;;19.67;15.10;;;6.70;99.90;;;;;;4998164;28;20038;-96
2024/01/30 08:19:15;;;;;;;16.17;14.07;;;6.90;99.90;;;;;;4991636;28;20100;-94
2024/01/30 08:21:41;;;;;;;;;;;6.90;99.90;;;;;;4999713;28;20049;-90
2024/01/30 08:24:07;;;;;;;17.20;13.65;;;6.90;99.90;;;;;;5003975;28;20426;-93
2024/01/30 08:26:38;;;;;;;22.83;15.65;;;7.00;99.90;;;;;;5018386;28;20511;-93
2024/01/30 08:29:04;;;;;;;22.50;14.25;;;7.10;99.90;;;;;;5001689;28;20069;-92
2024/01/30 08:31:33;;;;;;;19.55;13.65;;;7.10;99.90;;;;;;5001516;28;20053;-95
2024/01/30 08:34:01;;;;;;;17.88;15.30;;;7.10;99.90;;;;;;5018325;28;20057;-94
2024/01/30 08:36:37;;;;;;;18.65;13.82;;;7.20;99.90;;;;;;5004959;28;20053;-94
2024/01/30 08:39:05;;;;;;;20.65;14.75;;;7.20;99.90;;;;;;5028772;28;20136;-95
2024/01/30 08:41:33;;;;;;;22.05;14.15;;;7.30;99.90;;;;;;5017135;28;20057;-94
2024/01/30 08:44:04;;;;;;;18.17;12.82;;;7.40;99.90;;;;;;5002125;28;20042;-95
2024/01/30 08:46:33;;;;;;;15.73;12.60;;;7.40;99.90;;;;;;5002749;28;20038;-94
2024/01/30 08:49:04;;;;;;;18.08;12.32;;;7.40;99.90;;;;;;4998470;28;20042;-94
2024/01/30 08:51:33;;;;;;;18.52;13.63;;;7.30;99.90;;;;;;4982687;28;20042;-96
2024/01/30 08:54:04;;;;;;;20.25;13.32;;;7.50;99.90;;;;;;4997292;28;20058;-92
2024/01/30 08:56:32;;;;;;;17.25;12.80;;;7.60;99.90;;;;;;4981993;28;20110;-92
2024/01/30 08:59:01;;;;;;;15.30;12.80;;;7.60;99.90;;;;;;4998762;28;20123;-93
2024/01/30 09:01:29;;;;;;;18.40;13.50;;;7.60;99.90;;;;;;5030771;28;20053;-90
2024/01/30 09:03:58;;;;;;;17.40;12.55;;;7.70;99.90;;;;;;4998783;28;20078;-93
2024/01/30 09:06:28;;;;;;;14.35;11.35;;;7.80;99.90;;;;;;4998113;28;20104;-95
2024/01/30 09:09:14;;;;;;;15.25;12.00;;;7.80;99.90;;;;;;4997926;28;20404;-93
2024/01/30 09:11:45;;;;;;;20.17;13.05;;;7.80;99.90;;;;;;4981177;28;20049;-93
2024/01/30 09:14:14;;;;;;;18.25;13.60;;;8.30;99.90;;;;;;4982577;28;20100;-92
2024/01/30 09:16:48;;;;;;;15.20;12.30;;;7.90;99.90;;;;;;5018353;28;20491;-94
2024/01/30 09:19:34;;;;;;;14.93;11.90;;;8.00;99.90;;;;;;5032687;28;20049;-95
2024/01/30 09:22:06;;;;;;;17.55;12.73;;;7.90;99.90;;;;;;4996740;28;20404;-91
2024/01/30 09:24:42;;;;;;;16.73;12.93;;;8.00;99.90;;;;;;5001220;28;20049;-91
2024/01/30 09:27:08;;;;;;;16.50;13.05;;;8.10;99.90;;;;;;4987946;28;20073;-92
2024/01/30 09:29:36;;;;;;;16.53;13.27;;;8.10;99.90;;;;;;5013180;28;20488;-91
2024/01/30 09:32:05;;;;;;;20.02;12.90;;;8.10;99.90;;;;;;5025209;28;20503;-91
2024/01/30 09:34:39;;;;;;;17.20;12.63;;;8.30;99.90;;;;;;5015967;28;20526;-94
2024/01/30 09:37:17;;;;;;;15.52;12.85;;;8.20;99.90;;;;;;5018139;28;20559;-96
2024/01/30 09:39:43;;;;;;;16.42;11.98;;;8.30;99.90;;;;;;5004019;28;20049;-93
2024/01/30 09:42:30;;;;;;;17.43;11.73;;;8.30;99.90;;;;;;5015928;28;20053;-94
2024/01/30 09:44:56;;;;;;;17.02;11.70;;;8.30;99.90;;;;;;5016726;28;20155;-93
2024/01/30 09:47:22;;;;;;;17.08;12.35;;;8.40;99.90;;;;;;4998827;28;20038;-94
2024/01/30 09:49:51;;;;;;;15.63;11.73;;;8.30;99.90;;;;;;4980556;28;20129;-93
2024/01/30 09:52:18;;;;;;;18.60;12.70;;;7.60;99.90;;;;;;4997025;28;20065;-93
2024/01/30 09:54:49;;;;;;;16.45;12.40;;;8.40;99.90;;;;;;4997079;28;20049;-93
2024/01/30 09:57:15;;;;;;;17.00;12.25;;;8.50;99.90;;;;;;4981549;28;20045;-94
2024/01/30 09:59:44;;;;;;;16.80;12.13;;;8.60;99.90;;;;;;5005004;28;20055;-94
2024/01/30 10:02:10;;;;;;;15.38;11.35;;;8.70;99.90;;;;;;5000364;28;20092;-93
2024/01/30 10:04:39;;;;;;;14.82;11.95;;;8.80;99.90;;;;;;5000246;28;20156;-96
2024/01/30 10:07:05;;;;;;;19.35;12.60;;;8.80;99.90;;;;;;5016593;28;20052;-95
2024/01/30 10:09:37;;;;;;;15.05;11.82;;;8.90;99.90;;;;;;5016534;28;20049;-95
2024/01/30 10:12:03;;;;;;;16.55;13.48;;;8.90;99.90;;;;;;5016703;28;20049;-94
2024/01/30 10:14:29;;;;;;;19.25;12.23;;;9.00;99.90;;;;;;5033016;28;20049;-96
2024/01/30 10:17:03;;;;;;;17.33;12.63;;;8.90;99.90;;;;;;5016717;28;20553;-93
2024/01/30 10:19:37;;;;;;;17.80;12.02;;;9.00;99.90;;;;;;5006337;28;20053;-93
2024/01/30 10:22:14;;;;;;;14.85;11.40;;;9.00;99.90;;;;;;5016209;28;20049;-94
2024/01/30 10:24:53;;;;;;;16.95;11.55;;;9.10;99.90;;;;;;5016376;28;20050;-95
2024/01/30 10:27:29;;;;;;;16.10;11.52;;;9.10;99.90;;;;;;5001718;28;20042;-95
2024/01/30 10:30:00;;;;;;;19.23;11.73;;;8.30;99.90;;;;;;5016719;28;20128;-94
2024/01/30 10:32:35;;;;;;;18.58;12.48;;;9.10;99.90;;;;;;5017673;28;20079;-95
2024/01/30 10:35:01;;;;;;;13.27;11.02;;;9.20;99.90;;;;;;5013370;28;20068;-95
2024/01/30 10:37:31;;;;;;;14.98;11.57;;;9.20;99.90;;;;;;4980256;28;20492;-94
2024/01/30 10:40:02;;;;;;;17.25;12.85;;;9.30;99.90;;;;;;4996765;28;20069;-94
2024/01/30 10:42:32;;;;;;;19.30;11.63;;;9.30;99.90;;;;;;4999316;28;20141;-94
2024/01/30 10:45:19;;;;;;;;;;;;;;;;;;;;;
2024/01/30 10:47:52;;;;;;;18.45;12.40;;;9.40;99.90;;;;;;5032577;28;20132;-94
2024/01/30 10:50:28;;;;;;;14.35;11.90;;;9.40;99.90;;;;;;5016780;28;20053;-95
2024/01/30 10:53:04;;;;;;;19.13;13.13;;;9.50;99.90;;;;;;4993628;28;20111;-95
2024/01/30 10:55:42;;;;;;;19.35;12.18;;;9.50;99.90;;;;;;5027239;28;20033;-95
2024/01/30 10:58:16;;;;;;;14.75;12.00;;;9.50;99.90;;;;;;5000252;28;20132;-95
2024/01/30 11:00:43;;;;;;;20.42;12.20;;;9.60;99.90;;;;;;5001709;28;20050;-96
2024/01/30 11:03:12;;;;;;;16.75;13.15;;;9.50;99.90;;;;;;5016722;28;20119;-96
2024/01/30 11:05:43;;;;;;;19.38;13.43;;;9.50;99.90;;;;;;5016421;28;20060;-96
2024/01/30 11:08:22;;;;;;;20.58;11.70;;;8.70;99.90;;;;;;5016292;28;20042;-95
2024/01/30 11:10:56;;;;;;;17.30;12.35;;;9.60;99.90;;;;;;5018148;28;20060;-96
2024/01/30 11:16:39;;;;;;;18.48;12.02;;;9.60;99.90;;;;;;5037661;28;20044;-94
2024/01/30 11:19:13;;;;;;;17.02;12.13;;;9.50;99.90;;;;;;5019345;28;20079;-95
2024/01/30 11:21:45;;;;;;;19.45;12.70;;;9.50;99.90;;;;;;5020011;28;20064;-96
2024/01/30 11:24:14;;;;;;;15.80;13.10;;;9.50;99.90;;;;;;5019629;28;20057;-95
2024/01/30 11:26:42;;;;;;;18.17;11.82;;;9.50;99.90;;;;;;5020074;28;20059;-95
2024/01/30 11:29:11;;;;;;;19.33;12.70;;;9.50;99.90;;;;;;5019137;28;20052;-96
2024/01/30 11:31:39;;;;;;;17.95;12.25;;;9.50;99.90;;;;;;5019375;28;20510;-96
2024/01/30 11:34:25;;;;;;;15.60;13.25;;;9.00;99.90;;;;;;5018679;28;20103;-95
2024/01/30 11:37:02;;;;;;;17.38;12.10;;;9.60;99.90;;;;;;5019169;28;20056;-95
2024/01/30 11:39:29;;;;;;;17.75;12.75;;;9.60;99.90;;;;;;5019703;28;20088;-96
2024/01/30 11:42:08;;;;;;;20.30;14.43;;;9.60;99.90;;;;;;5017810;28;20060;-95
2024/01/30 11:44:34;;;;;;;16.45;12.60;;;9.60;99.90;;;;;;5017239;28;20056;-95
2024/01/30 11:47:00;;;;;;;24.93;14.30;;;9.60;99.90;;;;;;4999118;28;20507;-94
2024/01/30 11:49:51;;;;;;;19.70;13.73;;;9.60;99.90;;;;;;4999114;28;20301;-94
2024/01/30 11:52:17;;;;;;;20.77;14.02;;;9.60;99.90;;;;;;5016353;28;20060;-95
2024/01/30 11:54:45;;;;;;;18.00;13.55;;;9.70;99.90;;;;;;5018884;28;20056;-93
2024/01/30 11:57:16;;;;;;;22.90;13.02;;;9.80;99.90;;;;;;5022401;28;20041;-96
2024/01/30 11:59:45;;;;;;;21.45;14.57;;;9.70;99.90;;;;;;4995057;28;20080;-93
2024/01/30 12:02:17;;;;;;;21.50;14.48;;;9.70;99.90;;;;;;5037537;28;20071;-93
2024/01/30 12:04:43;;;;;;;23.85;14.32;;;9.80;99.90;;;;;;5038476;28;20051;-94
2024/01/30 12:07:11;;;;;;;23.05;14.93;;;9.80;99.90;;;;;;5004098;28;20045;-92
2024/01/30 12:09:39;;;;;;;22.45;14.68;;;9.90;99.90;;;;;;5018395;28;20041;-93
2024/01/30 12:12:14;;;;;;;20.15;15.32;;;9.90;99.90;;;;;;5015045;28;20061;-93
2024/01/30 12:14:49;;;;;;;22.67;14.90;;;10.00;99.90;;;;;;5002423;28;20054;-93
2024/01/30 12:17:32;;;;;;;20.20;15.02;;;9.90;99.90;;;;;;5038315;28;20128;-94
2024/01/30 12:20:11;;;;;;;19.58;14.07;;;10.00;99.90;;;;;;5038125;28;20041;-94
2024/01/30 12:22:40;;;;;;;19.95;15.32;;;9.90;99.90;;;;;;5037999;28;20049;-93
2024/01/30 12:25:13;;;;;;;27.23;15.43;;;9.30;99.90;;;;;;5054178;28;20052;-93
2024/01/30 12:27:42;;;;;;;20.10;12.50;;;9.80;99.90;;;;;;5038321;28;20575;-95
2024/01/30 12:30:10;;;;;;;19.58;10.52;;;9.70;99.90;;;;;;5037827;28;20053;-94
2024/01/30 12:32:46;;;;;;;21.02;10.95;;;9.70;99.90;;;;;;5038188;28;20056;-94
2024/01/30 12:35:21;;;;;;;15.95;8.73;;;9.30;99.90;;;;;;4983162;28;20571;-92
2024/01/30 12:37:52;;;;;;;16.73;9.40;;;9.60;99.90;;;;;;5018783;28;20041;-93
2024/01/30 12:40:18;;;;;;;17.90;8.80;;;9.30;99.90;;;;;;5016139;28;20042;-94
2024/01/30 12:42:54;;;;;;;17.63;7.25;;;9.60;99.90;;;;;;4999362;28;20093;-94
2024/01/30 12:45:22;;;;;;;13.45;5.90;;;9.70;99.90;;;;;;5008947;28;20049;-94
2024/01/30 12:47:52;;;;;;;8.65;5.22;;;9.60;99.90;;;;;;4982136;28;20053;-94
2024/01/30 12:50:19;;;;;;;9.85;4.43;;;9.50;99.90;;;;;;5025006;28;20164;-94
2024/01/30 12:52:55;;;;;;;;;;;;;;;;;;;;;
2024/01/30 12:55:24;;;;;;;6.47;2.33;;;9.50;99.90;;;;;;5034238;28;20080;-93
2024/01/30 12:58:02;;;;;;;;;;;;;;;;;;;;;
2024/01/30 13:00:31;;;;;;;3.92;2.03;;;9.50;99.90;;;;;;5019451;28;20096;-92
2024/01/30 13:03:07;;;;;;;5.35;2.22;;;9.40;99.90;;;;;;5018732;28;20050;-96
2024/01/30 13:05:34;;;;;;;7.35;2.13;;;8.80;99.90;;;;;;5018037;28;20045;-93
2024/01/30 13:08:03;;;;;;;3.78;1.90;;;9.40;99.90;;;;;;5017132;28;20044;-93
2024/01/30 13:10:31;;;;;;;3.20;1.88;;;9.40;99.90;;;;;;5017551;28;20049;-93
2024/01/30 13:12:57;;;;;;;3.65;1.88;;;9.50;99.90;;;;;;5001194;28;20411;-94
2024/01/30 13:15:23;;;;;;;3.40;1.80;;;9.30;99.90;;;;;;5017387;28;20045;-92
2024/01/30 13:17:49;;;;;;;3.53;1.77;;;9.20;99.90;;;;;;5016840;28;20320;-92
2024/01/30 13:20:20;;;;;;;;;;;9.20;99.90;;;;;;5033891;28;20073;-92
2024/01/30 13:22:50;;;;;;;1.80;1.70;;;9.10;99.90;;;;;;5033793;28;19921;-92
2024/01/30 13:25:18;;;;;;;2.75;1.77;;;9.10;99.90;;;;;;5033363;28;20045;-91
2024/01/30 13:27:44;;;;;;;3.40;1.70;;;8.60;99.90;;;;;;5034205;28;20081;-91
2024/01/30 13:30:15;;;;;;;3.27;1.60;;;9.10;99.90;;;;;;5000792;28;20091;-91
2024/01/30 13:32:43;;;;;;;2.28;1.70;;;9.20;99.90;;;;;;5032829;28;20284;-91
2024/01/30 13:35:12;;;;;;;4.13;1.90;;;9.00;99.90;;;;;;5016645;28;20049;-90
2024/01/30 13:37:41;;;;;;;1.67;1.50;;;9.00;99.90;;;;;;5031486;28;20187;-91
2024/01/30 13:40:08;;;;;;;;;;;9.10;99.90;;;;;;5002446;28;20468;-92
2024/01/30 13:42:34;;;;;;;2.58;1.90;;;9.00;99.90;;;;;;5013276;28;19921;-90
2024/01/30 13:45:03;;;;;;;3.35;2.00;;;8.90;99.90;;;;;;5014160;28;20056;-92
2024/01/30 13:47:29;;;;;;;1.60;1.50;;;9.00;99.90;;;;;;4997049;28;20046;-91
2024/01/30 13:49:56;;;;;;;3.00;1.40;;;9.00;99.90;;;;;;4996553;28;20057;-91
2024/01/30 13:52:24;;;;;;;4.90;1.77;;;9.00;99.90;;;;;;4996649;28;20806;-91
2024/01/30 13:54:50;;;;;;;2.67;1.80;;;9.20;99.90;;;;;;4996808;28;20132;-91
2024/01/30 13:57:18;;;;;;;3.13;2.30;;;9.30;99.90;;;;;;4980507;28;20173;-91
2024/01/30 13:59:46;;;;;;;2.03;1.73;;;9.40;99.90;;;;;;4996552;28;20050;-92
2024/01/30 14:02:16;;;;;;;2.33;2.13;;;9.50;99.90;;;;;;5012737;28;20070;-92
2024/01/30 14:04:47;;;;;;;3.38;1.80;;;9.40;99.90;;;;;;4997195;28;20073;-91
2024/01/30 14:07:15;;;;;;;3.17;2.60;;;8.70;99.90;;;;;;4996916;28;20117;-91
2024/01/30 14:09:43;;;;;;;6.43;2.13;;;9.40;99.90;;;;;;4980625;28;20042;-92
2024/01/30 14:12:11;;;;;;;2.50;2.17;;;9.30;99.90;;;;;;5013084;28;20112;-92
2024/01/30 14:14:37;;;;;;;2.92;2.22;;;9.30;99.90;;;;;;4996626;28;20049;-91
2024/01/30 14:17:03;;;;;;;4.83;3.40;;;9.30;99.90;;;;;;4996837;28;20063;-91
2024/01/30 14:19:32;;;;;;;6.70;3.08;;;9.20;99.90;;;;;;4996486;28;20156;-91
2024/01/30 14:21:58;;;;;;;5.78;3.42;;;9.20;99.90;;;;;;5013011;28;20037;-91
2024/01/30 14:24:23;;;;;;;5.53;2.90;;;8.60;99.90;;;;;;4996600;28;20053;-91
2024/01/30 14:26:59;;;;;;;3.20;2.87;;;9.20;99.90;;;;;;4996668;28;20046;-91